createdAt,value
2023-04-14T00:02:06.072Z,70.39
2023-04-14T00:04:34.058Z,70.19
2023-04-14T00:07:01.703Z,68.80
2023-04-14T00:09:30.130Z,68.43
2023-04-14T00:11:57.817Z,69.19
2023-04-14T00:14:25.592Z,69.15
2023-04-14T00:16:53.043Z,68.63
2023-04-14T00:19:21.914Z,69.11
2023-04-14T00:21:49.334Z,68.25
2023-04-14T00:24:16.755Z,69.70
2023-04-14T00:26:44.168Z,71.19
2023-04-14T00:29:11.600Z,69.79
2023-04-14T00:31:39.088Z,69.71
2023-04-14T00:34:06.643Z,69.48
2023-04-14T00:36:36.825Z,69.99
2023-04-14T00:39:04.790Z,69.76
2023-04-14T00:41:34.215Z,69.07
2023-04-14T00:44:02.828Z,69.96
2023-04-14T00:46:31.181Z,70.24
2023-04-14T00:48:59.112Z,71.62
2023-04-14T00:51:27.289Z,70.75
2023-04-14T00:53:57.484Z,71.34
2023-04-14T00:56:26.327Z,71.04
2023-04-14T00:58:54.601Z,72.46
2023-04-14T01:01:22.166Z,72.30
2023-04-14T01:03:49.806Z,71.66
2023-04-14T01:06:17.318Z,71.34
2023-04-14T01:08:45.546Z,71.76
2023-04-14T01:12:07.194Z,70.64
2023-04-14T01:14:43.257Z,70.83
2023-04-14T01:17:24.501Z,70.25
2023-04-14T01:20:08.145Z,71.03
2023-04-14T01:22:38.975Z,71.34
2023-04-14T01:25:27.433Z,70.27
2023-04-14T01:28:10.706Z,70.28
2023-04-14T01:30:57.888Z,71.13
2023-04-14T01:33:28.005Z,72.17
2023-04-14T01:35:57.845Z,72.25
2023-04-14T01:38:28.507Z,74.10
2023-04-14T01:41:00.291Z,73.54
2023-04-14T01:43:31.546Z,72.53
2023-04-14T01:46:05.449Z,73.73
2023-04-14T01:48:34.903Z,72.45
2023-04-14T01:51:04.414Z,75.09
2023-04-14T01:53:34.661Z,75.58
2023-04-14T01:56:04.485Z,75.75
2023-04-14T01:58:33.302Z,74.56
2023-04-14T02:01:01.146Z,75.42
2023-04-14T02:03:30.817Z,75.87
2023-04-14T02:06:00.244Z,74.18
2023-04-14T02:08:29.559Z,75.06
2023-04-14T02:11:00.399Z,73.24
2023-04-14T02:13:30.155Z,74.07
2023-04-14T02:15:58.996Z,76.12
2023-04-14T02:18:29.094Z,74.58
2023-04-14T02:21:00.108Z,75.89
2023-04-14T02:23:28.304Z,76.54
2023-04-14T02:26:01.441Z,76.53
2023-04-14T02:28:33.131Z,74.91
2023-04-14T02:31:06.472Z,75.61
2023-04-14T02:33:37.859Z,77.43
2023-04-14T02:36:13.766Z,75.86
2023-04-14T02:38:46.830Z,75.96
2023-04-14T02:41:21.280Z,74.49
2023-04-14T02:43:55.503Z,73.67
2023-04-14T02:46:25.136Z,74.87
2023-04-14T02:48:55.373Z,73.31
2023-04-14T02:51:25.806Z,72.77
2023-04-14T02:53:53.420Z,73.85
2023-04-14T02:56:21.870Z,72.36
2023-04-14T02:58:50.279Z,73.50
2023-04-14T03:01:20.135Z,76.76
2023-04-14T03:03:47.999Z,76.13
2023-04-14T03:06:16.832Z,75.13
2023-04-14T03:08:48.793Z,75.03
2023-04-14T03:11:17.710Z,73.47
2023-04-14T03:13:47.394Z,74.60
2023-04-14T03:16:15.522Z,74.40
2023-04-14T03:18:43.524Z,71.71
2023-04-14T03:21:11.031Z,72.68
2023-04-14T03:23:40.435Z,73.71
2023-04-14T03:26:11.688Z,74.86
2023-04-14T03:28:42.773Z,74.26
2023-04-14T03:31:16.378Z,74.70
2023-04-14T03:33:46.644Z,73.23
2023-04-14T03:36:17.361Z,76.06
2023-04-14T03:38:46.765Z,74.58
2023-04-14T03:41:17.202Z,74.11
2023-04-14T03:43:46.667Z,74.00
2023-04-14T03:46:14.447Z,73.37
2023-04-14T03:48:44.279Z,74.66
2023-04-14T03:51:13.675Z,76.05
2023-04-14T03:53:43.029Z,75.60
2023-04-14T03:56:13.394Z,83.36
2023-04-14T03:58:43.690Z,81.94
2023-04-14T04:01:12.732Z,79.40
2023-04-14T04:03:41.026Z,78.88
2023-04-14T04:06:09.128Z,79.69
2023-04-14T04:08:38.724Z,79.76
2023-04-14T04:11:08.365Z,77.44
2023-04-14T04:13:37.689Z,79.84
2023-04-14T04:16:09.119Z,76.68
2023-04-14T04:18:40.050Z,77.44
2023-04-14T04:21:08.913Z,76.00
2023-04-14T04:23:41.373Z,77.46
2023-04-14T04:26:09.514Z,77.83
2023-04-14T04:28:38.055Z,76.59
2023-04-14T04:31:07.582Z,74.65
2023-04-14T04:33:35.518Z,75.32
2023-04-14T04:36:05.290Z,75.72
2023-04-14T04:38:33.176Z,77.36
2023-04-14T04:41:00.708Z,79.11
2023-04-14T04:43:28.174Z,79.98
2023-04-14T04:46:15.496Z,80.08
2023-04-14T04:48:43.072Z,78.47
2023-04-14T04:51:10.659Z,79.42
2023-04-14T04:53:38.136Z,79.75
2023-04-14T04:56:06.447Z,79.50
2023-04-14T04:58:33.857Z,80.53
2023-04-14T05:01:08.400Z,78.04
2023-04-14T05:03:37.428Z,78.05
2023-04-14T05:06:05.258Z,78.83
2023-04-14T05:08:32.731Z,80.14
2023-04-14T05:11:00.254Z,78.48
2023-04-14T05:13:27.685Z,78.24
2023-04-14T05:16:03.626Z,81.20
2023-04-14T05:18:31.211Z,80.99
2023-04-14T05:21:04.890Z,81.34
2023-04-14T05:23:34.392Z,79.68
2023-04-14T05:26:24.066Z,79.49
2023-04-14T05:28:49.818Z,79.78
2023-04-14T05:31:17.308Z,80.60
2023-04-14T05:33:44.806Z,79.94
2023-04-14T05:36:13.600Z,80.23
2023-04-14T05:38:41.604Z,79.75
2023-04-14T05:41:09.206Z,78.91
2023-04-14T05:43:36.963Z,76.95
2023-04-14T05:46:04.914Z,78.14
2023-04-14T05:48:33.474Z,79.25
2023-04-14T05:51:01.347Z,79.68
2023-04-14T05:53:30.134Z,80.14
2023-04-14T05:55:58.073Z,79.20
2023-04-14T05:58:26.519Z,80.11
2023-04-14T06:00:54.121Z,79.40
2023-04-14T06:03:21.675Z,80.84
2023-04-14T06:05:50.635Z,80.17
2023-04-14T06:08:19.569Z,81.16
2023-04-14T06:10:48.376Z,82.15
2023-04-14T06:13:16.369Z,83.58
2023-04-14T06:15:43.890Z,82.79
2023-04-14T06:18:11.332Z,81.07
2023-04-14T06:20:38.805Z,79.39
2023-04-14T06:23:06.754Z,81.83
2023-04-14T06:25:34.813Z,79.58
2023-04-14T06:28:04.366Z,80.60
2023-04-14T06:30:32.976Z,81.91
2023-04-14T06:33:04.192Z,82.62
2023-04-14T06:35:33.685Z,82.39
2023-04-14T06:38:01.843Z,81.23
2023-04-14T06:40:29.449Z,81.55
2023-04-14T06:42:56.988Z,81.92
2023-04-14T06:45:26.134Z,81.72
2023-04-14T06:47:53.586Z,83.14
2023-04-14T06:50:21.052Z,84.25
2023-04-14T06:52:48.568Z,85.60
2023-04-14T06:55:16.327Z,86.08
2023-04-14T06:57:43.900Z,85.32
2023-04-14T07:00:12.651Z,86.12
2023-04-14T07:02:41.743Z,85.17
2023-04-14T07:05:09.741Z,85.37
2023-04-14T07:07:37.982Z,85.53
2023-04-14T07:10:06.343Z,85.67
2023-04-14T07:12:34.569Z,87.06
2023-04-14T07:15:02.022Z,85.49
2023-04-14T07:17:30.260Z,83.61
2023-04-14T07:19:59.078Z,84.47
2023-04-14T07:22:26.568Z,85.57
2023-04-14T07:24:54.369Z,86.70
2023-04-14T07:27:21.913Z,87.14
2023-04-14T07:29:53.538Z,84.35
2023-04-14T07:32:21.398Z,86.07
2023-04-14T07:34:48.864Z,87.18
2023-04-14T07:37:17.696Z,86.38
2023-04-14T07:39:47.605Z,86.40
2023-04-14T07:42:17.018Z,86.65
2023-04-14T07:44:44.590Z,86.80
2023-04-14T07:47:12.030Z,86.71
2023-04-14T07:49:39.600Z,84.67
2023-04-14T07:52:07.047Z,85.47
2023-04-14T07:54:35.893Z,85.39
2023-04-14T07:57:06.373Z,83.93
2023-04-14T07:59:33.841Z,83.65
2023-04-14T08:02:01.320Z,85.43
2023-04-14T08:04:28.922Z,87.40
2023-04-14T08:06:56.490Z,86.97
2023-04-14T08:09:23.954Z,88.98
2023-04-14T08:11:52.703Z,90.13
2023-04-14T08:14:20.322Z,90.54
2023-04-14T08:16:48.509Z,89.93
2023-04-14T08:19:16.280Z,90.64
2023-04-14T08:21:43.705Z,100.00
2023-04-14T08:24:11.259Z,89.53
2023-04-14T08:26:38.779Z,86.28
2023-04-14T08:29:07.589Z,89.91
2023-04-14T08:31:35.136Z,86.30
2023-04-14T08:34:02.648Z,85.83
2023-04-14T08:36:31.332Z,82.71
2023-04-14T08:38:59.973Z,79.35
2023-04-14T08:41:27.761Z,85.45
2023-04-14T08:43:55.692Z,87.94
2023-04-14T08:46:26.318Z,88.30
2023-04-14T08:49:02.250Z,90.55
2023-04-14T08:51:33.170Z,92.43
2023-04-14T08:54:02.216Z,90.70
2023-04-14T08:56:34.014Z,92.44
2023-04-14T08:59:02.419Z,93.21
2023-04-14T09:01:32.589Z,94.06
2023-04-14T09:04:04.093Z,93.83
2023-04-14T09:06:31.952Z,94.61
2023-04-14T09:09:00.118Z,94.43
2023-04-14T09:11:28.847Z,93.34
2023-04-14T09:13:56.991Z,93.74
2023-04-14T09:16:26.460Z,93.97
2023-04-14T09:18:56.078Z,94.37
2023-04-14T09:21:50.018Z,95.70
2023-04-14T09:24:17.932Z,96.47
2023-04-14T09:26:45.908Z,97.60
2023-04-14T09:29:13.509Z,97.22
2023-04-14T09:31:42.188Z,95.43
2023-04-14T09:34:18.892Z,96.41
2023-04-14T09:37:01.628Z,96.89
2023-04-14T09:39:29.455Z,95.71
2023-04-14T09:41:57.158Z,96.69
2023-04-14T09:44:24.610Z,95.23
2023-04-14T09:46:59.560Z,93.64
2023-04-14T09:49:29.980Z,95.32
2023-04-14T09:52:04.496Z,96.15
2023-04-14T09:54:33.442Z,95.38
2023-04-14T09:57:01.286Z,95.75
2023-04-14T09:59:34.019Z,96.41
2023-04-14T10:02:05.091Z,96.19
2023-04-14T10:04:34.593Z,96.72
2023-04-14T10:07:02.576Z,95.74
2023-04-14T10:09:30.952Z,95.80
2023-04-14T10:12:09.927Z,96.78
2023-04-14T10:14:38.811Z,95.77
2023-04-14T10:17:07.509Z,94.90
2023-04-14T10:19:37.707Z,92.82
2023-04-14T10:22:06.728Z,95.70
2023-04-14T10:24:34.733Z,95.64
2023-04-14T10:27:04.902Z,94.15
2023-04-14T10:29:32.587Z,96.18
2023-04-14T10:32:05.451Z,95.76
2023-04-14T10:34:34.503Z,95.69
2023-04-14T10:37:14.856Z,93.56
2023-04-14T10:39:43.121Z,95.04
2023-04-14T10:42:11.119Z,96.05
2023-04-14T10:44:39.265Z,96.52
2023-04-14T10:47:08.435Z,97.43
2023-04-14T10:49:38.206Z,97.00
2023-04-14T10:52:08.060Z,97.19
2023-04-14T10:54:54.003Z,96.03
2023-04-14T10:57:23.628Z,95.95
2023-04-14T10:59:55.340Z,94.36
2023-04-14T11:02:24.978Z,95.99
2023-04-14T11:05:04.105Z,96.87
2023-04-14T11:07:37.972Z,96.75
2023-04-14T11:10:44.622Z,97.63
2023-04-14T11:13:16.039Z,94.85
2023-04-14T11:15:49.794Z,95.11
2023-04-14T11:18:18.879Z,96.84
2023-04-14T11:20:46.461Z,98.10
2023-04-14T11:23:16.440Z,98.47
2023-04-14T11:25:44.081Z,99.13
2023-04-14T11:28:13.149Z,99.51
2023-04-14T11:30:41.956Z,100.00
2023-04-14T11:33:09.629Z,100.00
2023-04-14T11:35:37.150Z,100.00
2023-04-14T11:38:04.727Z,100.00
2023-04-14T11:40:33.250Z,100.00
2023-04-14T11:43:00.717Z,99.70
2023-04-14T11:45:31.765Z,99.25
2023-04-14T11:48:04.150Z,99.67
2023-04-14T11:50:34.058Z,99.30
2023-04-14T11:53:02.836Z,99.83
2023-04-14T11:55:30.795Z,99.07
2023-04-14T11:57:59.255Z,100.00
2023-04-14T12:00:28.471Z,99.41
2023-04-14T12:02:57.616Z,98.70
2023-04-14T12:05:31.152Z,98.57
2023-04-14T12:08:00.810Z,100.00
2023-04-14T12:10:29.179Z,98.66
2023-04-14T12:13:01.505Z,100.00
2023-04-14T12:15:29.505Z,100.00
2023-04-14T12:17:59.104Z,100.00
2023-04-14T12:20:27.033Z,100.00
2023-04-14T12:23:02.406Z,100.00
2023-04-14T12:25:32.800Z,100.00
2023-04-14T12:28:02.208Z,100.00
2023-04-14T12:30:29.668Z,100.00
2023-04-14T12:33:00.444Z,100.00
2023-04-14T12:35:35.394Z,100.00
2023-04-14T12:38:10.395Z,100.00
2023-04-14T12:40:38.843Z,100.00
2023-04-14T12:43:06.373Z,100.00
2023-04-14T12:45:41.277Z,100.00
2023-04-14T12:48:10.140Z,100.00
2023-04-14T12:50:37.809Z,100.00
2023-04-14T12:53:27.081Z,100.00
2023-04-14T12:56:06.818Z,100.00
2023-04-14T12:58:34.374Z,100.00
2023-04-14T13:01:01.908Z,100.00
2023-04-14T13:03:41.174Z,100.00
2023-04-14T13:06:08.987Z,100.00
2023-04-14T13:08:36.697Z,100.00
2023-04-14T13:11:04.365Z,100.00
2023-04-14T13:13:31.893Z,100.00
2023-04-14T13:16:15.225Z,100.00
2023-04-14T13:18:44.962Z,100.00
2023-04-14T13:21:12.467Z,100.00
2023-04-14T13:23:40.652Z,100.00
2023-04-14T13:26:08.245Z,100.00
2023-04-14T13:28:36.514Z,100.00
2023-04-14T13:31:04.090Z,100.00
2023-04-14T13:33:31.579Z,100.00
2023-04-14T13:36:00.556Z,100.00
2023-04-14T13:38:28.015Z,100.00
2023-04-14T13:40:55.481Z,100.00
2023-04-14T13:43:23.230Z,100.00
2023-04-14T13:45:50.734Z,100.00
2023-04-14T13:48:18.551Z,100.00
2023-04-14T13:50:45.939Z,100.00
2023-04-14T13:53:14.742Z,100.00
2023-04-14T13:55:42.433Z,100.00
2023-04-14T13:58:10.357Z,100.00
2023-04-14T14:00:37.854Z,100.00
2023-04-14T14:03:05.533Z,100.00
2023-04-14T14:05:33.052Z,100.00
2023-04-14T14:08:00.594Z,100.00
2023-04-14T14:10:29.343Z,100.00
2023-04-14T14:12:56.910Z,100.00
2023-04-14T14:15:24.422Z,100.00
2023-04-14T14:17:53.079Z,100.00
2023-04-14T14:20:20.911Z,100.00
2023-04-14T14:22:48.505Z,100.00
2023-04-14T14:25:20.579Z,100.00
2023-04-14T14:27:51.520Z,100.00
2023-04-14T14:30:19.059Z,100.00
2023-04-14T14:32:46.513Z,100.00
2023-04-14T14:35:14.001Z,100.00
2023-04-14T14:37:43.314Z,100.00
2023-04-14T14:40:12.792Z,100.00
2023-04-14T14:42:40.394Z,100.00
2023-04-14T14:45:10.261Z,100.00
2023-04-14T14:47:39.011Z,100.00
2023-04-14T14:50:08.947Z,100.00
2023-04-14T14:52:36.580Z,100.00
2023-04-14T14:55:05.094Z,100.00
2023-04-14T14:57:32.558Z,100.00
2023-04-14T15:00:00.228Z,100.00
2023-04-14T15:02:29.185Z,100.00
2023-04-14T15:04:57.127Z,100.00
2023-04-14T15:07:24.542Z,100.00
2023-04-14T15:09:51.964Z,100.00
2023-04-14T15:12:19.382Z,100.00
2023-04-14T15:14:46.976Z,100.00
2023-04-14T15:17:14.538Z,100.00
2023-04-14T15:19:44.762Z,100.00
2023-04-14T15:22:12.233Z,100.00
2023-04-14T15:24:39.663Z,100.00
2023-04-14T15:27:07.171Z,100.00
2023-04-14T15:29:34.729Z,100.00
2023-04-14T15:32:02.319Z,100.00
2023-04-14T15:34:29.882Z,100.00
2023-04-14T15:36:58.664Z,100.00
2023-04-14T15:39:26.882Z,100.00
2023-04-14T15:41:54.447Z,100.00
2023-04-14T15:44:21.900Z,100.00
2023-04-14T15:46:49.273Z,100.00
2023-04-14T15:49:16.678Z,100.00
2023-04-14T15:51:44.205Z,100.00
2023-04-14T15:54:12.933Z,100.00
2023-04-14T15:56:40.318Z,100.00
2023-04-14T15:59:07.936Z,100.00
2023-04-14T16:01:35.746Z,100.00
2023-04-14T16:04:03.496Z,100.00
2023-04-14T16:06:31.277Z,100.00
2023-04-14T16:08:58.721Z,100.00
2023-04-14T16:11:27.601Z,100.00
2023-04-14T16:13:55.214Z,100.00
2023-04-14T16:16:22.673Z,100.00
2023-04-14T16:18:50.251Z,100.00
2023-04-14T16:21:17.658Z,100.00
2023-04-14T16:23:45.150Z,100.00
2023-04-14T16:26:12.797Z,100.00
2023-04-14T16:28:41.764Z,100.00
2023-04-14T16:31:09.271Z,100.00
2023-04-14T16:33:37.851Z,100.00
2023-04-14T16:36:07.294Z,100.00
2023-04-14T16:38:35.005Z,100.00
2023-04-14T16:41:03.503Z,100.00
2023-04-14T16:43:31.397Z,100.00
2023-04-14T16:46:03.633Z,100.00
2023-04-14T16:48:32.488Z,100.00
2023-04-14T16:51:05.097Z,100.00
2023-04-14T16:53:32.881Z,100.00
2023-04-14T16:56:03.931Z,100.00
2023-04-14T16:58:31.643Z,100.00
2023-04-14T17:00:59.266Z,100.00
2023-04-14T17:03:28.393Z,100.00
2023-04-14T17:05:56.249Z,100.00
2023-04-14T17:08:24.241Z,100.00
2023-04-14T17:10:51.751Z,100.00
2023-04-14T17:13:19.232Z,100.00
2023-04-14T17:15:49.478Z,100.00
2023-04-14T17:18:20.963Z,100.00
2023-04-14T17:20:49.707Z,100.00
2023-04-14T17:23:17.746Z,100.00
2023-04-14T17:25:46.206Z,100.00
2023-04-14T17:28:14.003Z,100.00
2023-04-14T17:30:42.112Z,100.00
2023-04-14T17:33:10.369Z,100.00
2023-04-14T17:35:38.219Z,100.00
2023-04-14T17:38:07.478Z,100.00
2023-04-14T17:40:35.145Z,100.00
2023-04-14T17:43:04.424Z,100.00
2023-04-14T17:45:33.690Z,100.00
2023-04-14T17:48:01.247Z,100.00
2023-04-14T17:50:30.217Z,100.00
2023-04-14T17:52:59.292Z,100.00
2023-04-14T17:55:28.245Z,100.00
2023-04-14T17:57:56.236Z,100.00
2023-04-14T18:00:23.739Z,100.00
2023-04-14T18:02:51.316Z,100.00
2023-04-14T18:05:19.051Z,100.00
2023-04-14T18:07:46.895Z,100.00
2023-04-14T18:10:14.419Z,100.00
2023-04-14T18:12:43.250Z,100.00
2023-04-14T18:15:15.266Z,100.00
2023-04-14T18:17:43.384Z,100.00
2023-04-14T18:20:11.698Z,100.00
2023-04-14T18:22:39.793Z,100.00
2023-04-14T18:25:09.031Z,100.00
2023-04-14T18:30:10.675Z,100.00
2023-04-14T18:32:38.236Z,100.00
2023-04-14T18:35:07.013Z,100.00
2023-04-14T18:37:34.472Z,100.00
2023-04-14T18:40:02.174Z,100.00
2023-04-14T18:42:31.369Z,100.00
2023-04-14T18:44:58.895Z,100.00
2023-04-14T18:47:28.710Z,100.00
2023-04-14T18:49:56.269Z,100.00
2023-04-14T18:52:23.783Z,100.00
2023-04-14T18:54:51.313Z,100.00
2023-04-14T18:57:19.242Z,100.00
2023-04-14T18:59:46.911Z,100.00
2023-04-14T19:02:14.941Z,100.00
2023-04-14T19:04:44.678Z,100.00
2023-04-14T19:07:12.252Z,100.00
2023-04-14T19:09:39.705Z,100.00
2023-04-14T19:12:15.528Z,100.00
2023-04-14T19:14:53.247Z,100.00
2023-04-14T19:17:20.797Z,100.00
2023-04-14T19:19:50.240Z,100.00
2023-04-14T19:22:18.018Z,100.00
2023-04-14T19:24:48.241Z,100.00
2023-04-14T19:27:15.664Z,100.00
2023-04-14T19:29:43.157Z,100.00
2023-04-14T19:32:12.163Z,100.00
2023-04-14T19:34:39.971Z,100.00
2023-04-14T19:37:11.068Z,100.00
2023-04-14T19:39:38.605Z,100.00
2023-04-14T19:42:06.190Z,100.00
2023-04-14T19:44:35.241Z,100.00
2023-04-14T19:47:03.238Z,100.00
2023-04-14T19:49:31.014Z,100.00
2023-04-14T19:51:58.473Z,100.00
2023-04-14T19:54:29.747Z,100.00
2023-04-14T19:56:57.238Z,100.00
2023-04-14T19:59:24.850Z,100.00
2023-04-14T20:01:52.424Z,100.00
2023-04-14T20:04:20.665Z,100.00
2023-04-14T20:06:48.246Z,100.00
2023-04-14T20:09:15.810Z,100.00
2023-04-14T20:11:45.592Z,100.00
2023-04-14T20:14:13.090Z,100.00
2023-04-14T20:16:40.705Z,100.00
2023-04-14T20:19:09.812Z,100.00
2023-04-14T20:21:37.570Z,100.00
2023-04-14T20:24:05.835Z,100.00
2023-04-14T20:26:34.996Z,100.00
2023-04-14T20:29:05.311Z,100.00
2023-04-14T20:31:35.304Z,98.97
2023-04-14T20:34:04.053Z,97.52
2023-04-14T20:36:35.605Z,97.25
2023-04-14T20:39:04.800Z,97.14
2023-04-14T20:41:32.430Z,95.55
2023-04-14T20:43:59.866Z,98.50
2023-04-14T20:46:28.901Z,100.00
2023-04-14T20:48:58.394Z,100.00
2023-04-14T20:51:25.896Z,100.00
2023-04-14T20:53:53.434Z,100.00
2023-04-14T20:56:22.453Z,100.00
2023-04-14T20:58:49.961Z,100.00
2023-04-14T21:01:17.738Z,100.00
2023-04-14T21:03:46.747Z,100.00
2023-04-14T21:06:14.344Z,100.00
2023-04-14T21:08:42.103Z,100.00
2023-04-14T21:11:16.811Z,100.00
2023-04-14T21:15:25.533Z,100.00
2023-04-14T21:16:36.363Z,100.00
2023-04-14T21:19:05.941Z,100.00
2023-04-14T21:21:34.221Z,100.00
2023-04-14T21:24:03.277Z,100.00
2023-04-14T21:26:30.930Z,100.00
2023-04-14T21:28:58.809Z,100.00
2023-04-14T21:31:26.714Z,100.00
2023-04-14T21:33:54.212Z,100.00
2023-04-14T21:36:23.397Z,100.00
2023-04-14T21:38:51.123Z,100.00
2023-04-14T21:41:18.580Z,100.00
2023-04-14T21:43:46.255Z,100.00
2023-04-14T21:46:13.918Z,100.00
2023-04-14T21:48:41.510Z,100.00
2023-04-14T21:51:09.006Z,100.00
2023-04-14T21:53:37.830Z,100.00
2023-04-14T21:56:10.003Z,100.00
2023-04-14T21:58:39.226Z,100.00
2023-04-14T22:01:07.620Z,100.00
2023-04-14T22:03:37.387Z,100.00
2023-04-14T22:06:05.745Z,100.00
2023-04-14T22:08:33.392Z,100.00
2023-04-14T22:11:02.386Z,100.00
2023-04-14T22:13:29.857Z,100.00
2023-04-14T22:15:58.066Z,100.00
2023-04-14T22:18:25.539Z,100.00
2023-04-14T22:20:53.025Z,100.00
2023-04-14T22:23:20.984Z,100.00
2023-04-14T22:25:48.468Z,100.00
2023-04-14T22:28:17.217Z,100.00
2023-04-14T22:30:44.891Z,100.00
2023-04-14T22:33:12.504Z,100.00
2023-04-14T22:35:40.656Z,100.00
2023-04-14T22:38:08.284Z,100.00
2023-04-14T22:40:35.954Z,100.00
2023-04-14T22:43:08.570Z,100.00
2023-04-14T22:45:38.104Z,100.00
2023-04-14T22:48:06.779Z,100.00
2023-04-14T22:50:34.674Z,100.00
2023-04-14T22:53:02.637Z,100.00
2023-04-14T22:55:30.241Z,100.00
2023-04-14T22:57:57.736Z,100.00
2023-04-14T23:00:25.969Z,100.00
2023-04-14T23:02:55.815Z,100.00
2023-04-14T23:05:23.414Z,100.00
2023-04-14T23:07:51.189Z,100.00
2023-04-14T23:10:18.993Z,100.00
2023-04-14T23:12:46.833Z,100.00
2023-04-14T23:15:14.283Z,100.00
2023-04-14T23:17:41.788Z,100.00
2023-04-14T23:20:12.199Z,100.00
2023-04-14T23:22:39.636Z,100.00
2023-04-14T23:25:08.946Z,100.00
2023-04-14T23:27:36.396Z,100.00
2023-04-14T23:30:05.387Z,100.00
2023-04-14T23:32:34.279Z,100.00
2023-04-14T23:35:01.803Z,100.00
2023-04-14T23:37:30.619Z,100.00
2023-04-14T23:39:58.162Z,100.00
2023-04-14T23:42:25.560Z,100.00
2023-04-14T23:44:53.078Z,100.00
2023-04-14T23:47:20.468Z,100.00
2023-04-14T23:49:47.968Z,100.00
2023-04-14T23:52:15.419Z,100.00
2023-04-14T23:54:44.268Z,100.00
2023-04-14T23:57:11.851Z,100.00
2023-04-14T23:59:39.305Z,100.00
